sensor_id;sensor_type;location;lat;lon;timestamp;pressure;altitude;pressure_sealevel;temperature;humidity
42433;BME280;28071;48.232;20.668;2023-09-08T00:02:03;100290.50;;;13.89;100.00
42433;BME280;28071;48.232;20.668;2023-09-08T00:07:03;100278.22;;;13.81;100.00
42433;BME280;28071;48.232;20.668;2023-09-08T00:12:04;100292.56;;;13.87;100.00
42433;BME280;28071;48.232;20.668;2023-09-08T00:17:05;100313.09;;;13.93;100.00
42433;BME280;28071;48.232;20.668;2023-09-08T00:22:05;100288.16;;;13.74;100.00
42433;BME280;28071;48.232;20.668;2023-09-08T00:27:08;100273.63;;;13.70;100.00
42433;BME280;28071;48.232;20.668;2023-09-08T00:32:09;100327.28;;;13.94;100.00
42433;BME280;28071;48.232;20.668;2023-09-08T00:37:10;100284.09;;;13.72;100.00
42433;BME280;28071;48.232;20.668;2023-09-08T00:42:10;100297.94;;;13.87;100.00
42433;BME280;28071;48.232;20.668;2023-09-08T00:47:11;100296.47;;;13.66;100.00
42433;BME280;28071;48.232;20.668;2023-09-08T00:52:11;100273.28;;;13.60;100.00
42433;BME280;28071;48.232;20.668;2023-09-08T00:57:12;100274.66;;;13.44;100.00
42433;BME280;28071;48.232;20.668;2023-09-08T01:02:12;100305.09;;;13.68;100.00
42433;BME280;28071;48.232;20.668;2023-09-08T01:07:13;100279.25;;;13.62;100.00
42433;BME280;28071;48.232;20.668;2023-09-08T01:12:14;100281.09;;;13.62;100.00
42433;BME280;28071;48.232;20.668;2023-09-08T01:17:15;100258.03;;;13.42;100.00
42433;BME280;28071;48.232;20.668;2023-09-08T01:27:50;100231.88;;;13.19;100.00
42433;BME280;28071;48.232;20.668;2023-09-08T01:32:51;100293.09;;;13.52;100.00
42433;BME280;28071;48.232;20.668;2023-09-08T01:37:52;100284.97;;;13.41;100.00
42433;BME280;28071;48.232;20.668;2023-09-08T01:42:53;100272.75;;;13.26;100.00
42433;BME280;28071;48.232;20.668;2023-09-08T01:47:53;100266.81;;;13.24;100.00
42433;BME280;28071;48.232;20.668;2023-09-08T01:52:53;100292.00;;;13.35;100.00
42433;BME280;28071;48.232;20.668;2023-09-08T01:57:54;100292.28;;;13.27;100.00
42433;BME280;28071;48.232;20.668;2023-09-08T02:02:54;100287.56;;;13.22;100.00
42433;BME280;28071;48.232;20.668;2023-09-08T02:07:55;100295.00;;;13.20;100.00
42433;BME280;28071;48.232;20.668;2023-09-08T02:12:56;100304.63;;;13.21;100.00
42433;BME280;28071;48.232;20.668;2023-09-08T02:17:57;100300.34;;;13.14;100.00
42433;BME280;28071;48.232;20.668;2023-09-08T02:22:57;100297.81;;;12.94;100.00
42433;BME280;28071;48.232;20.668;2023-09-08T02:27:58;100274.50;;;12.76;100.00
42433;BME280;28071;48.232;20.668;2023-09-08T02:32:58;100273.44;;;12.77;100.00
42433;BME280;28071;48.232;20.668;2023-09-08T02:37:59;100249.56;;;12.57;100.00
42433;BME280;28071;48.232;20.668;2023-09-08T02:43:02;100280.50;;;12.71;100.00
42433;BME280;28071;48.232;20.668;2023-09-08T02:48:02;100275.53;;;12.75;100.00
42433;BME280;28071;48.232;20.668;2023-09-08T02:53:03;100258.69;;;12.74;100.00
42433;BME280;28071;48.232;20.668;2023-09-08T02:58:03;100297.97;;;12.99;100.00
42433;BME280;28071;48.232;20.668;2023-09-08T03:03:04;100275.44;;;12.88;100.00
42433;BME280;28071;48.232;20.668;2023-09-08T03:08:04;100261.84;;;12.65;100.00
42433;BME280;28071;48.232;20.668;2023-09-08T03:13:08;100274.78;;;12.61;100.00
42433;BME280;28071;48.232;20.668;2023-09-08T03:18:08;100241.91;;;12.22;100.00
42433;BME280;28071;48.232;20.668;2023-09-08T03:23:08;100253.34;;;12.36;100.00
42433;BME280;28071;48.232;20.668;2023-09-08T03:28:09;100265.97;;;12.54;100.00
42433;BME280;28071;48.232;20.668;2023-09-08T03:33:09;100283.56;;;12.68;100.00
42433;BME280;28071;48.232;20.668;2023-09-08T03:38:10;100251.78;;;12.60;100.00
42433;BME280;28071;48.232;20.668;2023-09-08T03:43:10;100297.47;;;12.77;100.00
42433;BME280;28071;48.232;20.668;2023-09-08T03:48:10;100278.03;;;12.70;100.00
42433;BME280;28071;48.232;20.668;2023-09-08T03:53:11;100246.66;;;12.59;100.00
42433;BME280;28071;48.232;20.668;2023-09-08T03:58:12;100248.38;;;12.46;100.00
42433;BME280;28071;48.232;20.668;2023-09-08T04:03:12;100281.56;;;12.57;100.00
42433;BME280;28071;48.232;20.668;2023-09-08T04:08:13;100289.19;;;12.54;100.00
42433;BME280;28071;48.232;20.668;2023-09-08T04:13:13;100285.56;;;12.41;100.00
42433;BME280;28071;48.232;20.668;2023-09-08T04:18:13;100266.09;;;12.34;100.00
42433;BME280;28071;48.232;20.668;2023-09-08T04:23:14;100266.91;;;12.35;100.00
42433;BME280;28071;48.232;20.668;2023-09-08T04:28:14;100285.34;;;12.43;100.00
42433;BME280;28071;48.232;20.668;2023-09-08T04:33:14;100249.28;;;12.27;100.00
42433;BME280;28071;48.232;20.668;2023-09-08T04:38:15;100296.59;;;12.52;100.00
42433;BME280;28071;48.232;20.668;2023-09-08T04:43:15;100305.56;;;12.64;100.00
42433;BME280;28071;48.232;20.668;2023-09-08T04:48:15;100309.16;;;12.83;100.00
42433;BME280;28071;48.232;20.668;2023-09-08T04:53:16;100313.66;;;12.89;100.00
42433;BME280;28071;48.232;20.668;2023-09-08T04:58:16;100284.47;;;12.56;100.00
42433;BME280;28071;48.232;20.668;2023-09-08T05:03:16;100280.75;;;12.57;100.00
42433;BME280;28071;48.232;20.668;2023-09-08T05:08:17;100311.91;;;13.08;100.00
42433;BME280;28071;48.232;20.668;2023-09-08T05:13:17;100290.31;;;13.41;100.00
42433;BME280;28071;48.232;20.668;2023-09-08T05:18:18;100299.00;;;15.31;100.00
42433;BME280;28071;48.232;20.668;2023-09-08T05:23:18;100321.28;;;16.49;100.00
42433;BME280;28071;48.232;20.668;2023-09-08T05:28:18;100336.59;;;16.88;100.00
42433;BME280;28071;48.232;20.668;2023-09-08T05:33:19;100320.47;;;17.17;100.00
42433;BME280;28071;48.232;20.668;2023-09-08T05:38:19;100309.22;;;17.03;100.00
42433;BME280;28071;48.232;20.668;2023-09-08T05:43:21;100317.78;;;17.17;100.00
42433;BME280;28071;48.232;20.668;2023-09-08T05:48:21;100352.97;;;17.61;100.00
42433;BME280;28071;48.232;20.668;2023-09-08T05:53:22;100329.63;;;17.50;100.00
42433;BME280;28071;48.232;20.668;2023-09-08T05:58:22;100337.56;;;17.73;100.00
42433;BME280;28071;48.232;20.668;2023-09-08T06:03:24;100320.50;;;17.67;100.00
42433;BME280;28071;48.232;20.668;2023-09-08T06:08:24;100348.69;;;17.98;100.00
42433;BME280;28071;48.232;20.668;2023-09-08T06:13:25;100320.63;;;18.11;100.00
42433;BME280;28071;48.232;20.668;2023-09-08T06:18:28;100345.22;;;18.58;100.00
42433;BME280;28071;48.232;20.668;2023-09-08T06:23:29;100333.13;;;18.61;100.00
42433;BME280;28071;48.232;20.668;2023-09-08T06:28:30;100324.53;;;18.64;100.00
42433;BME280;28071;48.232;20.668;2023-09-08T06:33:31;100341.66;;;18.97;100.00
42433;BME280;28071;48.232;20.668;2023-09-08T06:38:31;100356.97;;;19.18;100.00
42433;BME280;28071;48.232;20.668;2023-09-08T06:43:31;100332.88;;;19.38;100.00
42433;BME280;28071;48.232;20.668;2023-09-08T06:48:32;100316.75;;;19.44;100.00
42433;BME280;28071;48.232;20.668;2023-09-08T06:53:32;100323.19;;;19.70;100.00
42433;BME280;28071;48.232;20.668;2023-09-08T06:58:33;100323.81;;;19.87;100.00
42433;BME280;28071;48.232;20.668;2023-09-08T07:03:33;100342.06;;;20.07;100.00
42433;BME280;28071;48.232;20.668;2023-09-08T07:08:36;100311.78;;;20.00;100.00
42433;BME280;28071;48.232;20.668;2023-09-08T07:13:37;100341.38;;;20.32;100.00
42433;BME280;28071;48.232;20.668;2023-09-08T07:18:37;100339.34;;;20.49;100.00
42433;BME280;28071;48.232;20.668;2023-09-08T07:23:38;100347.22;;;20.61;100.00
42433;BME280;28071;48.232;20.668;2023-09-08T07:28:38;100329.38;;;20.60;100.00
42433;BME280;28071;48.232;20.668;2023-09-08T07:33:39;100301.88;;;20.73;100.00
42433;BME280;28071;48.232;20.668;2023-09-08T07:38:40;100338.25;;;21.33;100.00
42433;BME280;28071;48.232;20.668;2023-09-08T07:43:40;100290.56;;;21.12;100.00
42433;BME280;28071;48.232;20.668;2023-09-08T07:48:41;100289.78;;;21.26;100.00
42433;BME280;28071;48.232;20.668;2023-09-08T07:53:41;100305.72;;;21.69;97.40
42433;BME280;28071;48.232;20.668;2023-09-08T07:58:41;100303.25;;;22.03;95.08
42433;BME280;28071;48.232;20.668;2023-09-08T08:03:42;100285.09;;;22.13;93.75
42433;BME280;28071;48.232;20.668;2023-09-08T08:20:23;100304.34;;;23.21;87.14
42433;BME280;28071;48.232;20.668;2023-09-08T08:25:24;100260.38;;;23.19;82.97
42433;BME280;28071;48.232;20.668;2023-09-08T08:30:24;100298.78;;;23.70;82.52
42433;BME280;28071;48.232;20.668;2023-09-08T08:35:25;100320.94;;;24.12;80.66
42433;BME280;28071;48.232;20.668;2023-09-08T08:40:25;100277.38;;;24.17;78.32
42433;BME280;28071;48.232;20.668;2023-09-08T08:45:29;100303.25;;;24.81;76.25
42433;BME280;28071;48.232;20.668;2023-09-08T08:50:31;100288.00;;;24.99;73.94
42433;BME280;28071;48.232;20.668;2023-09-08T08:55:34;100319.16;;;25.44;72.06
42433;BME280;28071;48.232;20.668;2023-09-08T09:00:35;100315.78;;;25.85;70.20
42433;BME280;28071;48.232;20.668;2023-09-08T09:05:39;100289.63;;;25.51;69.32
42433;BME280;28071;48.232;20.668;2023-09-08T09:10:40;100308.19;;;25.82;67.49
42433;BME280;28071;48.232;20.668;2023-09-08T09:15:43;100306.13;;;26.47;66.04
42433;BME280;28071;48.232;20.668;2023-09-08T09:20:55;100292.53;;;26.70;64.43
42433;BME280;28071;48.232;20.668;2023-09-08T09:25:56;100309.56;;;27.25;61.53
42433;BME280;28071;48.232;20.668;2023-09-08T09:30:57;100291.34;;;27.43;59.67
42433;BME280;28071;48.232;20.668;2023-09-08T09:35:59;100317.75;;;28.01;59.74
42433;BME280;28071;48.232;20.668;2023-09-08T09:40:59;100312.94;;;28.46;55.66
42433;BME280;28071;48.232;20.668;2023-09-08T09:46:01;100314.41;;;28.53;56.37
42433;BME280;28071;48.232;20.668;2023-09-08T09:51:18;100291.06;;;28.46;53.83
42433;BME280;28071;48.232;20.668;2023-09-08T09:56:19;100276.91;;;28.70;52.96
42433;BME280;28071;48.232;20.668;2023-09-08T10:01:24;100278.41;;;29.11;52.38
42433;BME280;28071;48.232;20.668;2023-09-08T10:06:26;100295.28;;;29.30;50.38
42433;BME280;28071;48.232;20.668;2023-09-08T10:11:29;100291.91;;;29.51;48.71
42433;BME280;28071;48.232;20.668;2023-09-08T10:16:34;100280.34;;;29.83;47.17
42433;BME280;28071;48.232;20.668;2023-09-08T10:21:42;100284.09;;;30.17;46.94
42433;BME280;28071;48.232;20.668;2023-09-08T10:26:51;100280.09;;;30.35;45.47
42433;BME280;28071;48.232;20.668;2023-09-08T10:31:55;100276.88;;;30.63;45.25
42433;BME280;28071;48.232;20.668;2023-09-08T10:36:57;100262.31;;;30.42;44.57
42433;BME280;28071;48.232;20.668;2023-09-08T10:47:20;100281.28;;;30.97;41.63
42433;BME280;28071;48.232;20.668;2023-09-08T10:52:23;100287.31;;;31.32;40.51
42433;BME280;28071;48.232;20.668;2023-09-08T10:57:24;100278.88;;;31.49;39.76
42433;BME280;28071;48.232;20.668;2023-09-08T11:02:36;100264.94;;;31.67;39.16
42433;BME280;28071;48.232;20.668;2023-09-08T11:07:37;100282.13;;;31.76;39.12
42433;BME280;28071;48.232;20.668;2023-09-08T11:12:38;100272.09;;;32.05;38.60
42433;BME280;28071;48.232;20.668;2023-09-08T11:17:38;100257.53;;;32.28;38.47
42433;BME280;28071;48.232;20.668;2023-09-08T11:22:43;100247.66;;;32.40;38.49
42433;BME280;28071;48.232;20.668;2023-09-08T11:27:44;100251.13;;;32.12;37.71
42433;BME280;28071;48.232;20.668;2023-09-08T11:32:45;100262.91;;;32.25;37.52
42433;BME280;28071;48.232;20.668;2023-09-08T11:37:45;100261.88;;;32.17;38.58
42433;BME280;28071;48.232;20.668;2023-09-08T11:42:46;100236.06;;;32.46;37.21
42433;BME280;28071;48.232;20.668;2023-09-08T11:47:47;100256.63;;;32.77;36.38
42433;BME280;28071;48.232;20.668;2023-09-08T11:52:51;100225.19;;;32.13;37.23
42433;BME280;28071;48.232;20.668;2023-09-08T11:57:52;100241.00;;;33.09;35.57
42433;BME280;28071;48.232;20.668;2023-09-08T12:03:11;100239.97;;;33.57;35.22
42433;BME280;28071;48.232;20.668;2023-09-08T12:08:12;100207.03;;;33.64;33.60
42433;BME280;28071;48.232;20.668;2023-09-08T12:13:13;100210.94;;;33.79;33.59
42433;BME280;28071;48.232;20.668;2023-09-08T12:18:37;100196.84;;;33.37;32.97
42433;BME280;28071;48.232;20.668;2023-09-08T12:23:51;100197.50;;;33.46;33.54
42433;BME280;28071;48.232;20.668;2023-09-08T12:28:51;100200.63;;;33.45;33.71
42433;BME280;28071;48.232;20.668;2023-09-08T12:33:52;100179.16;;;33.38;33.97
42433;BME280;28071;48.232;20.668;2023-09-08T12:38:53;100169.19;;;33.33;32.20
42433;BME280;28071;48.232;20.668;2023-09-08T12:43:53;100192.34;;;33.60;31.89
42433;BME280;28071;48.232;20.668;2023-09-08T12:48:53;100182.19;;;33.96;31.28
42433;BME280;28071;48.232;20.668;2023-09-08T12:53:54;100170.03;;;33.85;30.90
42433;BME280;28071;48.232;20.668;2023-09-08T12:58:54;100172.09;;;33.88;30.08
42433;BME280;28071;48.232;20.668;2023-09-08T13:03:55;100164.03;;;33.95;32.06
42433;BME280;28071;48.232;20.668;2023-09-08T13:08:55;100161.78;;;33.06;32.05
42433;BME280;28071;48.232;20.668;2023-09-08T13:13:56;100156.91;;;33.31;30.96
42433;BME280;28071;48.232;20.668;2023-09-08T13:18:57;100141.66;;;33.84;30.13
42433;BME280;28071;48.232;20.668;2023-09-08T13:23:57;100148.63;;;33.31;31.22
42433;BME280;28071;48.232;20.668;2023-09-08T13:28:58;100121.69;;;33.40;30.75
42433;BME280;28071;48.232;20.668;2023-09-08T13:33:58;100130.50;;;33.46;29.59
42433;BME280;28071;48.232;20.668;2023-09-08T13:38:59;100133.56;;;33.41;31.35
42433;BME280;28071;48.232;20.668;2023-09-08T13:44:00;100108.72;;;33.56;30.42
42433;BME280;28071;48.232;20.668;2023-09-08T13:49:01;100132.00;;;33.59;30.54
42433;BME280;28071;48.232;20.668;2023-09-08T13:54:02;100122.63;;;33.95;30.08
42433;BME280;28071;48.232;20.668;2023-09-08T13:59:02;100090.31;;;33.80;28.45
42433;BME280;28071;48.232;20.668;2023-09-08T14:04:04;100122.25;;;33.97;29.06
42433;BME280;28071;48.232;20.668;2023-09-08T14:09:06;100113.09;;;33.77;29.12
42433;BME280;28071;48.232;20.668;2023-09-08T14:14:07;100104.59;;;34.20;29.44
42433;BME280;28071;48.232;20.668;2023-09-08T14:19:08;100115.38;;;34.45;28.73
42433;BME280;28071;48.232;20.668;2023-09-08T14:24:08;100094.59;;;34.51;27.97
42433;BME280;28071;48.232;20.668;2023-09-08T14:29:09;100089.63;;;34.21;33.41
42433;BME280;28071;48.232;20.668;2023-09-08T14:34:10;100084.41;;;33.97;31.83
42433;BME280;28071;48.232;20.668;2023-09-08T14:39:11;100086.44;;;34.19;31.85
42433;BME280;28071;48.232;20.668;2023-09-08T14:44:12;100074.59;;;34.00;30.94
42433;BME280;28071;48.232;20.668;2023-09-08T14:49:12;100083.16;;;34.14;28.12
42433;BME280;28071;48.232;20.668;2023-09-08T14:54:15;100086.44;;;34.19;29.61
42433;BME280;28071;48.232;20.668;2023-09-08T14:59:15;100083.78;;;33.88;33.55
42433;BME280;28071;48.232;20.668;2023-09-08T15:04:16;100068.94;;;33.57;32.73
42433;BME280;28071;48.232;20.668;2023-09-08T15:09:17;100076.50;;;33.29;31.89
42433;BME280;28071;48.232;20.668;2023-09-08T15:14:17;100079.34;;;33.32;33.15
42433;BME280;28071;48.232;20.668;2023-09-08T15:19:18;100071.53;;;33.19;34.34
42433;BME280;28071;48.232;20.668;2023-09-08T15:24:19;100062.63;;;33.09;36.23
42433;BME280;28071;48.232;20.668;2023-09-08T15:29:19;100057.16;;;32.50;36.21
42433;BME280;28071;48.232;20.668;2023-09-08T15:34:20;100066.19;;;32.22;35.78
42433;BME280;28071;48.232;20.668;2023-09-08T15:39:20;100069.31;;;31.81;39.43
42433;BME280;28071;48.232;20.668;2023-09-08T15:44:21;100038.16;;;30.79;41.85
42433;BME280;28071;48.232;20.668;2023-09-08T15:49:22;100048.63;;;29.90;42.74
42433;BME280;28071;48.232;20.668;2023-09-08T15:54:22;100049.84;;;29.21;47.20
42433;BME280;28071;48.232;20.668;2023-09-08T15:59:23;100050.41;;;28.07;51.40
42433;BME280;28071;48.232;20.668;2023-09-08T16:04:24;100047.72;;;27.41;54.66
42433;BME280;28071;48.232;20.668;2023-09-08T16:09:25;100028.16;;;26.68;57.20
42433;BME280;28071;48.232;20.668;2023-09-08T16:14:26;100039.44;;;26.08;60.82
42433;BME280;28071;48.232;20.668;2023-09-08T16:19:28;100033.59;;;25.51;63.73
42433;BME280;28071;48.232;20.668;2023-09-08T16:24:29;100015.16;;;25.07;66.88
42433;BME280;28071;48.232;20.668;2023-09-08T16:29:30;100029.53;;;24.33;72.12
42433;BME280;28071;48.232;20.668;2023-09-08T16:34:31;100031.78;;;24.26;72.64
42433;BME280;28071;48.232;20.668;2023-09-08T16:39:31;100006.44;;;23.56;77.37
42433;BME280;28071;48.232;20.668;2023-09-08T16:44:32;100016.56;;;23.07;80.81
42433;BME280;28071;48.232;20.668;2023-09-08T16:54:33;100023.53;;;22.26;86.71
42433;BME280;28071;48.232;20.668;2023-09-08T16:59:34;100001.66;;;22.18;85.82
42433;BME280;28071;48.232;20.668;2023-09-08T17:04:34;100001.97;;;21.72;90.19
42433;BME280;28071;48.232;20.668;2023-09-08T17:09:36;99998.41;;;21.32;94.06
42433;BME280;28071;48.232;20.668;2023-09-08T17:14:37;100008.50;;;20.96;97.16
42433;BME280;28071;48.232;20.668;2023-09-08T17:19:37;99999.91;;;20.68;98.80
42433;BME280;28071;48.232;20.668;2023-09-08T17:24:38;99977.50;;;20.17;100.00
42433;BME280;28071;48.232;20.668;2023-09-08T17:29:40;100041.81;;;20.40;100.00
42433;BME280;28071;48.232;20.668;2023-09-08T17:34:40;100047.44;;;20.08;100.00
42433;BME280;28071;48.232;20.668;2023-09-08T17:39:41;100055.22;;;19.84;100.00
42433;BME280;28071;48.232;20.668;2023-09-08T17:44:42;100036.47;;;19.52;100.00
42433;BME280;28071;48.232;20.668;2023-09-08T17:49:43;100062.59;;;19.41;100.00
42433;BME280;28071;48.232;20.668;2023-09-08T17:54:44;100049.84;;;19.22;100.00
42433;BME280;28071;48.232;20.668;2023-09-08T17:59:45;100006.53;;;18.96;100.00
42433;BME280;28071;48.232;20.668;2023-09-08T18:04:46;100031.56;;;18.87;100.00
42433;BME280;28071;48.232;20.668;2023-09-08T18:09:47;100045.09;;;18.92;100.00
42433;BME280;28071;48.232;20.668;2023-09-08T18:14:53;100066.06;;;18.84;100.00
42433;BME280;28071;48.232;20.668;2023-09-08T18:19:54;100052.34;;;18.54;100.00
42433;BME280;28071;48.232;20.668;2023-09-08T18:24:55;100057.97;;;18.84;100.00
42433;BME280;28071;48.232;20.668;2023-09-08T18:29:56;100065.25;;;18.84;100.00
42433;BME280;28071;48.232;20.668;2023-09-08T18:34:57;100052.97;;;18.34;100.00
42433;BME280;28071;48.232;20.668;2023-09-08T18:39:57;100062.66;;;18.30;100.00
42433;BME280;28071;48.232;20.668;2023-09-08T18:44:58;100038.00;;;18.16;100.00
42433;BME280;28071;48.232;20.668;2023-09-08T18:50:01;100054.16;;;18.16;100.00
42433;BME280;28071;48.232;20.668;2023-09-08T18:55:02;100054.16;;;18.16;100.00
42433;BME280;28071;48.232;20.668;2023-09-08T19:00:04;100046.03;;;18.11;100.00
42433;BME280;28071;48.232;20.668;2023-09-08T19:05:06;100073.88;;;18.22;100.00
42433;BME280;28071;48.232;20.668;2023-09-08T19:10:08;100057.84;;;17.83;100.00
42433;BME280;28071;48.232;20.668;2023-09-08T19:15:09;100045.28;;;17.45;100.00
42433;BME280;28071;48.232;20.668;2023-09-08T19:20:11;100051.28;;;17.30;100.00
42433;BME280;28071;48.232;20.668;2023-09-08T19:25:12;100073.50;;;17.86;100.00
42433;BME280;28071;48.232;20.668;2023-09-08T19:30:14;100044.34;;;18.32;100.00
42433;BME280;28071;48.232;20.668;2023-09-08T19:35:15;100065.13;;;19.11;100.00
42433;BME280;28071;48.232;20.668;2023-09-08T19:40:18;100064.66;;;18.45;100.00
42433;BME280;28071;48.232;20.668;2023-09-08T19:45:19;100066.09;;;17.98;100.00
42433;BME280;28071;48.232;20.668;2023-09-08T19:50:21;100069.66;;;18.04;100.00
42433;BME280;28071;48.232;20.668;2023-09-08T19:55:22;100046.91;;;17.90;100.00
42433;BME280;28071;48.232;20.668;2023-09-08T20:00:23;100060.25;;;17.58;100.00
42433;BME280;28071;48.232;20.668;2023-09-08T20:05:24;100064.69;;;17.25;100.00
42433;BME280;28071;48.232;20.668;2023-09-08T20:10:25;100058.16;;;16.82;100.00
42433;BME280;28071;48.232;20.668;2023-09-08T20:15:27;100064.84;;;16.80;100.00
42433;BME280;28071;48.232;20.668;2023-09-08T20:20:29;100032.25;;;16.59;100.00
42433;BME280;28071;48.232;20.668;2023-09-08T20:25:30;100033.25;;;16.53;100.00
42433;BME280;28071;48.232;20.668;2023-09-08T20:30:31;100035.44;;;16.40;100.00
42433;BME280;28071;48.232;20.668;2023-09-08T20:35:35;100051.22;;;16.53;100.00
42433;BME280;28071;48.232;20.668;2023-09-08T20:40:37;100039.84;;;16.29;100.00
42433;BME280;28071;48.232;20.668;2023-09-08T20:45:38;100031.66;;;16.07;100.00
42433;BME280;28071;48.232;20.668;2023-09-08T20:50:39;100020.53;;;15.98;100.00
42433;BME280;28071;48.232;20.668;2023-09-08T20:55:40;100031.16;;;15.93;100.00
42433;BME280;28071;48.232;20.668;2023-09-08T21:00:41;99997.28;;;15.47;100.00
42433;BME280;28071;48.232;20.668;2023-09-08T21:05:41;100005.66;;;15.50;100.00
42433;BME280;28071;48.232;20.668;2023-09-08T21:10:43;100044.94;;;15.85;100.00
42433;BME280;28071;48.232;20.668;2023-09-08T21:15:45;100024.88;;;15.59;100.00
42433;BME280;28071;48.232;20.668;2023-09-08T21:20:47;100036.16;;;15.73;100.00
42433;BME280;28071;48.232;20.668;2023-09-08T21:25:48;100028.72;;;15.63;100.00
42433;BME280;28071;48.232;20.668;2023-09-08T21:30:48;100024.56;;;15.44;100.00
42433;BME280;28071;48.232;20.668;2023-09-08T21:35:49;100049.00;;;15.59;100.00
42433;BME280;28071;48.232;20.668;2023-09-08T21:40:49;100005.88;;;15.20;100.00
42433;BME280;28071;48.232;20.668;2023-09-08T21:45:50;100027.19;;;15.27;100.00
42433;BME280;28071;48.232;20.668;2023-09-08T21:50:53;100013.00;;;15.03;100.00
42433;BME280;28071;48.232;20.668;2023-09-08T21:55:53;100011.03;;;14.98;100.00
42433;BME280;28071;48.232;20.668;2023-09-08T22:00:53;100018.81;;;15.00;100.00
42433;BME280;28071;48.232;20.668;2023-09-08T22:05:54;100022.88;;;15.03;100.00
42433;BME280;28071;48.232;20.668;2023-09-08T22:11:01;100010.94;;;14.82;100.00
42433;BME280;28071;48.232;20.668;2023-09-08T22:16:02;100050.38;;;15.21;100.00
42433;BME280;28071;48.232;20.668;2023-09-08T22:21:03;100052.59;;;15.13;100.00
42433;BME280;28071;48.232;20.668;2023-09-08T22:26:13;100018.81;;;15.00;100.00
42433;BME280;28071;48.232;20.668;2023-09-08T22:31:14;100043.78;;;14.89;100.00
42433;BME280;28071;48.232;20.668;2023-09-08T22:36:15;100044.09;;;14.92;100.00
42433;BME280;28071;48.232;20.668;2023-09-08T22:41:15;100050.03;;;14.94;100.00
42433;BME280;28071;48.232;20.668;2023-09-08T22:46:15;100009.06;;;14.70;100.00
42433;BME280;28071;48.232;20.668;2023-09-08T22:51:16;100027.44;;;14.79;100.00
42433;BME280;28071;48.232;20.668;2023-09-08T22:56:16;100033.28;;;14.76;100.00
42433;BME280;28071;48.232;20.668;2023-09-08T23:01:17;100015.47;;;14.58;100.00
42433;BME280;28071;48.232;20.668;2023-09-08T23:06:19;100048.53;;;14.87;100.00
42433;BME280;28071;48.232;20.668;2023-09-08T23:11:19;99977.94;;;14.34;100.00
42433;BME280;28071;48.232;20.668;2023-09-08T23:16:19;100034.91;;;14.65;100.00
42433;BME280;28071;48.232;20.668;2023-09-08T23:21:22;99996.09;;;14.32;100.00
42433;BME280;28071;48.232;20.668;2023-09-08T23:26:22;100023.25;;;14.48;100.00
42433;BME280;28071;48.232;20.668;2023-09-08T23:31:25;99990.72;;;14.09;100.00
42433;BME280;28071;48.232;20.668;2023-09-08T23:36:26;100017.72;;;14.19;100.00
42433;BME280;28071;48.232;20.668;2023-09-08T23:41:26;100009.91;;;14.18;100.00
42433;BME280;28071;48.232;20.668;2023-09-08T23:46:27;100008.78;;;14.25;100.00
42433;BME280;28071;48.232;20.668;2023-09-08T23:51:27;99985.13;;;14.10;100.00
42433;BME280;28071;48.232;20.668;2023-09-08T23:56:28;100024.84;;;14.37;100.00
